Time;durP1;ratioP1;P1;durP2;ratioP2;P2;SDS_P1;SDS_P2;PMS_P1;PMS_P2;Temp;Humidity;BMP_temperature;BMP_pressure;BME280_temperature;BME280_humidity;BME280_pressure;Samples;Min_cycle;Max_cycle;Signal;HPM_P1;HPM_P2
2023/09/23 00:01:47;;;;;;;12.18;6.20;;;;;;;14.37;57.47;100827.78;4944966;28;20482;-69
2023/09/23 00:04:13;;;;;;;10.00;5.63;;;;;;;14.46;57.19;100840.78;4943100;28;20054;-70
2023/09/23 00:06:40;;;;;;;7.63;5.45;;;;;;;14.16;57.62;100797.41;4930560;29;20043;-70
2023/09/23 00:09:08;;;;;;;14.80;6.05;;;;;;;14.40;57.41;100838.25;4944524;28;20682;-69
2023/09/23 00:11:37;;;;;;;12.23;5.93;;;;;;;14.38;57.51;100833.88;4930503;29;20094;-68
2023/09/23 00:14:05;;;;;;;12.80;6.70;;;;;;;14.36;57.39;100833.91;4944220;28;20098;-71
2023/09/23 00:16:31;;;;;;;9.95;6.18;;;;;;;14.35;57.45;100829.53;4923417;29;20142;-69
2023/09/23 00:18:58;;;;;;;12.18;5.60;;;;;;;14.23;57.58;100811.34;4929869;29;20097;-69
2023/09/23 00:21:25;;;;;;;11.65;6.18;;;;;;;14.41;57.57;100842.59;4929925;29;20043;-70
2023/09/23 00:23:51;;;;;;;8.77;6.25;;;;;;;14.40;57.63;100838.25;4936847;29;20051;-69
2023/09/23 00:26:22;;;;;;;9.43;6.18;;;;;;;14.45;57.61;100838.19;4929288;29;20082;-70
2023/09/23 00:28:52;;;;;;;8.07;5.75;;;;;;;14.41;57.66;100847.81;4928358;29;20455;-70
2023/09/23 00:31:19;;;;;;;8.40;6.45;;;;;;;14.25;57.66;100820.00;4930431;29;20553;-71
2023/09/23 00:33:48;;;;;;;11.88;6.70;;;;;;;14.33;57.47;100839.16;4936673;29;20564;-71
2023/09/23 00:36:15;;;;;;;14.57;6.63;;;;;;;14.28;57.88;100827.84;4913687;29;20422;-70
2023/09/23 00:38:41;;;;;;;12.18;5.90;;;;;;;14.30;57.83;100834.81;4928236;29;20036;-69
2023/09/23 00:41:10;;;;;;;7.63;6.05;;;;;;;14.35;57.80;100841.75;4929527;29;20044;-70
2023/09/23 00:43:36;;;;;;;9.23;6.20;;;;;;;14.23;57.86;100822.66;4929215;29;20383;-70
2023/09/23 00:46:06;;;;;;;10.05;6.90;;;;;;;14.28;57.86;100838.31;4928929;29;20506;-67
2023/09/23 00:48:39;;;;;;;9.57;6.65;;;;;;;14.18;57.95;100832.28;4944120;28;20528;-70
2023/09/23 00:51:09;;;;;;;11.50;7.28;;;;;;;14.24;57.59;100841.81;4928927;29;20060;-69
2023/09/23 00:53:39;;;;;;;9.40;6.70;;;;;;;14.26;57.86;100847.94;4941425;28;20035;-70
2023/09/23 00:56:07;;;;;;;9.57;6.80;;;;;;;14.14;58.00;100836.69;4944876;28;20047;-68
2023/09/23 00:58:38;;;;;;;10.15;6.57;;;;;;;14.17;57.96;100848.88;4928301;29;20085;-68
2023/09/23 01:01:08;;;;;;;10.20;6.20;;;;;;;14.06;58.19;100833.25;4923698;29;20497;-69
2023/09/23 01:03:38;;;;;;;9.48;6.55;;;;;;;14.08;58.06;100834.09;4928748;29;20036;-69
2023/09/23 01:06:14;;;;;;;12.50;6.68;;;;;;;14.10;58.15;100834.97;4929057;29;20047;-70
2023/09/23 01:08:42;;;;;;;12.68;7.15;;;;;;;14.12;58.06;100838.44;4943299;28;20040;-69
2023/09/23 01:11:08;;;;;;;11.25;6.57;;;;;;;14.06;58.34;100833.25;4943453;28;20407;-71
2023/09/23 01:13:35;;;;;;;10.68;6.20;;;;;;;13.97;58.56;100815.84;4944355;29;20507;-69
2023/09/23 01:16:06;;;;;;;9.77;6.60;;;;;;;13.93;58.63;100819.38;4929867;29;20086;-69
2023/09/23 01:18:32;;;;;;;9.60;6.65;;;;;;;14.01;58.54;100838.50;4933796;29;20103;-68
2023/09/23 01:20:58;;;;;;;14.15;6.82;;;;;;;14.03;58.37;100842.88;4930004;29;20501;-70
2023/09/23 01:23:24;;;;;;;12.90;7.28;;;;;;;13.96;58.74;100832.44;4926419;29;20044;-69
2023/09/23 01:25:50;;;;;;;12.15;7.10;;;;;;;13.82;58.71;100808.97;4928539;29;20052;-70
2023/09/23 01:28:18;;;;;;;11.90;7.20;;;;;;;13.95;58.52;100837.69;4941527;28;20039;-68
2023/09/23 01:30:45;;;;;;;10.77;7.55;;;;;;;13.90;58.78;100842.06;4944472;28;20059;-70
2023/09/23 01:33:14;;;;;;;14.75;7.82;;;;;;;13.75;59.17;100822.97;4929619;29;20581;-68
2023/09/23 01:35:41;;;;;;;13.25;7.78;;;;;;;13.84;59.15;100841.22;4923245;29;20483;-69
2023/09/23 01:38:07;;;;;;;13.77;7.88;;;;;;;13.81;59.36;100830.78;4911836;29;20521;-69
2023/09/23 01:40:36;;;;;;;14.07;9.15;;;;;;;13.64;59.54;100801.22;4939919;28;20094;-70
2023/09/23 01:43:04;;;;;;;12.50;8.57;;;;;;;13.81;59.21;100830.78;4931619;29;20035;-71
2023/09/23 01:45:30;;;;;;;11.45;7.88;;;;;;;13.82;59.54;100839.50;4947368;28;20053;-70
2023/09/23 01:47:56;;;;;;;12.02;7.88;;;;;;;13.74;59.61;100831.72;4933387;29;20091;-70
2023/09/23 01:50:25;;;;;;;14.52;7.80;;;;;;;13.81;59.54;100837.75;4947030;28;20043;-70
2023/09/23 01:52:51;;;;;;;11.85;7.38;;;;;;;13.82;59.85;100849.97;4946602;28;20157;-70
2023/09/23 01:55:18;;;;;;;19.23;9.68;;;;;;;13.78;59.50;100832.53;4947951;28;20087;-70
2023/09/23 01:57:48;;;;;;;17.08;9.48;;;;;;;13.71;59.32;100827.34;4931680;29;20051;-70
2023/09/23 02:00:18;;;;;;;12.90;7.70;;;;;;;13.80;59.65;100843.88;4946581;28;20043;-69
2023/09/23 02:02:45;;;;;;;14.70;7.43;;;;;;;13.65;59.73;100824.78;4912888;29;20040;-70
2023/09/23 02:05:12;;;;;;;12.57;7.53;;;;;;;13.71;59.37;100845.66;4945093;28;20406;-70
2023/09/23 02:07:39;;;;;;;12.45;7.43;;;;;;;13.67;59.60;100849.19;4933164;29;20043;-73
2023/09/23 02:10:08;;;;;;;11.52;7.85;;;;;;;13.54;59.79;100832.69;4940455;28;20110;-72
2023/09/23 02:12:35;;;;;;;12.60;6.65;;;;;;;13.67;60.14;100848.31;4924378;29;20243;-70
2023/09/23 02:15:03;;;;;;;12.25;7.63;;;;;;;13.61;60.08;100848.31;4929629;29;20063;-72
2023/09/23 02:17:31;;;;;;;11.65;7.60;;;;;;;13.40;60.39;100808.28;4926724;29;20047;-71
2023/09/23 02:19:57;;;;;;;13.52;7.28;;;;;;;13.59;60.06;100847.44;4946880;28;20054;-71
2023/09/23 02:22:24;;;;;;;9.98;7.13;;;;;;;13.57;60.09;100846.63;4942161;28;20047;-71
2023/09/23 02:24:50;;;;;;;13.05;7.43;;;;;;;13.49;60.24;100834.44;4932474;29;20086;-70
2023/09/23 02:27:16;;;;;;;12.35;7.28;;;;;;;13.53;59.98;100846.63;4944822;28;20071;-71
2023/09/23 02:29:43;;;;;;;12.20;7.03;;;;;;;13.60;60.23;100864.88;4928249;29;20131;-71
2023/09/23 02:32:09;;;;;;;14.52;8.45;;;;;;;13.28;60.15;100826.66;4915437;29;20139;-71
2023/09/23 02:34:36;;;;;;;15.10;8.57;;;;;;;13.47;60.48;100859.72;4945221;28;20119;-71
2023/09/23 02:37:04;;;;;;;9.98;7.10;;;;;;;13.42;60.41;100856.25;4933234;29;20043;-70
2023/09/23 02:39:31;;;;;;;15.35;7.88;;;;;;;13.30;60.06;100832.75;4931943;29;20050;-71
2023/09/23 02:41:59;;;;;;;10.10;6.90;;;;;;;13.42;60.67;100864.09;4946463;28;20467;-72
2023/09/23 02:44:29;;;;;;;11.80;7.93;;;;;;;13.37;60.50;100850.13;4914434;29;20035;-70
2023/09/23 02:46:56;;;;;;;9.60;6.88;;;;;;;13.44;60.77;100864.97;4931301;29;20414;-72
2023/09/23 02:49:22;;;;;;;13.07;7.95;;;;;;;13.39;60.65;100864.06;4931872;29;20470;-71
2023/09/23 02:51:48;;;;;;;16.48;8.00;;;;;;;13.38;60.49;100865.81;4945393;28;20040;-72
2023/09/23 02:54:18;;;;;;;14.60;8.70;;;;;;;13.09;60.53;100831.94;4929430;29;20054;-72
2023/09/23 02:56:46;;;;;;;14.52;8.95;;;;;;;13.25;60.58;100870.22;4946225;28;20047;-70
2023/09/23 02:59:15;;;;;;;13.25;9.43;;;;;;;13.21;60.60;100871.09;4930453;29;20148;-72
2023/09/23 03:01:45;;;;;;;15.88;8.77;;;;;;;13.06;60.95;100860.69;4930519;29;20493;-71
2023/09/23 03:04:23;;;;;;;20.45;10.32;;;;;;;13.16;61.74;100869.38;4932261;29;20518;-72
2023/09/23 03:06:54;;;;;;;20.42;9.88;;;;;;;13.10;61.38;100878.97;4945784;28;20164;-71
2023/09/23 03:09:25;;;;;;;19.30;10.45;;;;;;;13.00;61.15;100861.59;4925138;29;20043;-70
2023/09/23 03:11:57;;;;;;;15.70;9.35;;;;;;;12.89;61.78;100839.81;4929647;29;20044;-71
2023/09/23 03:14:42;;;;;;;14.27;9.23;;;;;;;12.97;61.35;100853.75;4931713;29;20440;-71
2023/09/23 03:17:13;;;;;;;17.02;9.07;;;;;;;12.99;61.56;100859.84;4944166;28;20051;-71
2023/09/23 03:19:39;;;;;;;11.10;8.27;;;;;;;13.00;61.30;100864.19;4930014;29;20055;-71
2023/09/23 03:22:05;;;;;;;11.40;8.50;;;;;;;13.08;62.04;100882.47;4931331;29;20074;-71
2023/09/23 03:24:32;;;;;;;16.10;8.77;;;;;;;12.90;61.50;100837.22;4930387;29;20121;-71
2023/09/23 03:27:00;;;;;;;15.88;8.27;;;;;;;13.07;61.93;100868.50;4930636;29;20502;-71
2023/09/23 03:29:28;;;;;;;14.18;8.50;;;;;;;13.02;61.84;100856.34;4925744;29;20065;-70
2023/09/23 03:31:56;;;;;;;11.73;8.13;;;;;;;13.10;62.02;100862.44;4923956;29;20418;-70
2023/09/23 03:34:23;;;;;;;14.88;9.48;;;;;;;13.16;61.70;100862.38;4913646;29;20402;-70
2023/09/23 03:36:53;;;;;;;15.05;8.30;;;;;;;13.30;61.54;100882.41;4944888;28;20129;-70
2023/09/23 03:39:20;;;;;;;14.98;8.43;;;;;;;13.38;61.46;100885.84;4945618;28;20087;-69
2023/09/23 03:41:46;;;;;;;14.02;8.07;;;;;;;13.38;61.51;100885.84;4929232;29;20048;-70
2023/09/23 03:44:16;;;;;;;12.38;7.90;;;;;;;13.43;61.18;100885.88;4936650;29;20055;-69
2023/09/23 03:46:46;;;;;;;15.80;7.95;;;;;;;13.43;61.16;100873.69;4938590;28;20500;-71
2023/09/23 03:49:12;;;;;;;12.00;7.72;;;;;;;13.60;61.33;100885.81;4930523;29;20106;-70
2023/09/23 03:51:39;;;;;;;14.18;9.50;;;;;;;13.64;61.09;100871.84;4939743;28;20364;-71
2023/09/23 03:54:06;;;;;;;17.05;8.93;;;;;;;13.81;60.70;100890.94;4922169;29;20051;-71
2023/09/23 03:56:34;;;;;;;15.50;8.25;;;;;;;13.61;60.62;100846.59;4929498;29;20046;-70
2023/09/23 03:59:05;;;;;;;17.75;8.82;;;;;;;13.86;60.77;100868.25;4927814;29;20191;-70
2023/09/23 04:01:33;;;;;;;10.10;7.65;;;;;;;13.88;60.63;100849.06;4930507;28;20058;-72
2023/09/23 04:04:03;;;;;;;16.13;8.45;;;;;;;14.23;60.28;100876.78;4930876;29;20485;-70
2023/09/23 04:06:30;;;;;;;15.85;8.07;;;;;;;14.45;59.94;100885.31;4937295;28;20388;-70
2023/09/23 04:08:58;;;;;;;10.85;7.45;;;;;;;14.63;59.53;100884.31;4944655;28;20070;-71
2023/09/23 04:11:26;;;;;;;12.02;7.40;;;;;;;14.75;59.35;100873.75;4928926;29;20090;-71
2023/09/23 04:13:53;;;;;;;9.13;7.38;;;;;;;14.86;58.75;100875.41;4943509;28;20143;-71
2023/09/23 04:16:19;;;;;;;15.20;6.82;;;;;;;15.08;58.40;100873.44;4929575;29;20087;-71
2023/09/23 04:18:51;;;;;;;8.88;6.80;;;;;;;15.30;57.95;100876.69;4944289;28;20052;-73
2023/09/23 04:21:20;;;;;;;9.85;6.72;;;;;;;15.71;57.31;100884.94;4928897;29;20048;-71
2023/09/23 04:23:49;;;;;;;10.65;7.05;;;;;;;16.14;56.97;100873.00;4929088;29;20130;-72
2023/09/23 04:26:15;;;;;;;9.63;7.20;;;;;;;16.73;56.35;100877.31;4927600;29;20463;-72
2023/09/23 04:28:41;;;;;;;14.75;6.47;;;;;;;16.94;55.38;100868.19;4943869;28;20047;-72
2023/09/23 04:31:08;;;;;;;7.82;6.15;;;;;;;17.35;54.72;100876.19;4929744;29;20046;-72
2023/09/23 04:33:34;;;;;;;9.43;6.20;;;;;;;17.63;53.70;100880.06;4930787;29;20131;-72
2023/09/23 04:36:00;;;;;;;8.70;6.28;;;;;;;17.74;53.24;100867.53;4928836;29;20561;-72
2023/09/23 04:38:26;;;;;;;9.00;6.90;;;;;;;18.01;52.79;100865.22;4928413;29;20040;-71
2023/09/23 04:40:52;;;;;;;7.78;6.00;;;;;;;18.73;51.92;100866.97;4926873;29;20051;-71
2023/09/23 04:43:19;;;;;;;9.02;6.25;;;;;;;20.12;50.68;100881.56;4944791;28;20048;-71
2023/09/23 04:45:46;;;;;;;8.80;6.13;;;;;;;21.46;48.22;100866.44;4921473;29;20051;-71
2023/09/23 04:48:14;;;;;;;13.90;5.93;;;;;;;22.64;45.99;100862.69;4943863;28;20051;-71
2023/09/23 04:50:41;;;;;;;12.07;5.18;;;;;;;23.81;43.72;100857.53;4929195;29;20108;-72
2023/09/23 04:53:08;;;;;;;6.60;5.50;;;;;;;24.93;41.84;100874.22;4928666;29;20172;-71
2023/09/23 04:55:34;;;;;;;8.95;5.38;;;;;;;25.73;39.52;100854.88;4923330;29;20502;-70
2023/09/23 04:58:01;;;;;;;6.90;5.53;;;;;;;26.73;38.14;100864.25;4943608;28;20098;-72
2023/09/23 05:00:32;;;;;;;9.48;6.22;;;;;;;27.37;36.40;100845.25;4934594;29;20074;-73
2023/09/23 05:02:59;;;;;;;7.80;5.78;;;;;;;27.94;34.97;100843.44;4929270;29;20043;-75
2023/09/23 05:05:25;;;;;;;8.82;5.35;;;;;;;28.86;33.65;100860.50;4944991;28;20071;-75
2023/09/23 05:07:51;;;;;;;7.53;5.60;;;;;;;29.52;32.42;100847.91;4943132;28;20311;-78
2023/09/23 05:10:18;;;;;;;7.95;5.43;;;;;;;30.03;31.54;100793.22;4910358;29;20066;-74
2023/09/23 05:12:45;;;;;;;7.53;5.72;;;;;;;31.07;29.49;100855.97;4906908;29;20071;-75
2023/09/23 05:15:14;;;;;;;6.78;5.55;;;;;;;31.47;29.03;100832.28;4944682;28;20063;-75
2023/09/23 05:17:43;;;;;;;6.70;5.00;;;;;;;32.19;28.14;100860.47;4938767;29;20352;-74
2023/09/23 05:20:19;;;;;;;10.25;5.22;;;;;;;32.51;26.67;100866.81;4943417;28;20048;-75
2023/09/23 05:22:46;;;;;;;8.48;5.00;;;;;;;32.94;26.73;100865.84;4931538;29;20164;-74
2023/09/23 05:25:13;;;;;;;7.72;5.18;;;;;;;33.32;25.83;100825.69;4934097;29;20043;-76
2023/09/23 05:27:39;;;;;;;9.02;5.10;;;;;;;33.94;24.16;100855.25;4913390;29;20134;-78
2023/09/23 05:30:08;;;;;;;7.15;4.72;;;;;;;34.58;24.45;100868.31;4935017;29;20570;-77
2023/09/23 05:32:38;;;;;;;9.90;5.25;;;;;;;35.23;23.29;100857.59;4933920;29;20138;-78
2023/09/23 05:35:09;;;;;;;7.97;5.00;;;;;;;35.75;22.46;100864.31;4933011;29;20036;-78
2023/09/23 05:37:40;;;;;;;6.32;5.40;;;;;;;36.10;22.10;100850.94;4935008;29;20109;-78
2023/09/23 05:42:52;;;;;;;6.95;4.95;;;;;;;37.49;20.64;100858.28;4933455;29;20082;-78
2023/09/23 05:45:19;;;;;;;11.18;5.45;;;;;;;38.08;19.82;100854.66;4932443;29;20454;-78
2023/09/23 05:47:45;;;;;;;6.75;4.50;;;;;;;38.28;18.83;100829.91;4933481;29;20360;-77
2023/09/23 05:50:11;;;;;;;6.82;4.90;;;;;;;38.73;19.13;100860.25;4946435;28;20113;-77
2023/09/23 05:52:37;;;;;;;7.55;4.95;;;;;;;39.03;18.62;100871.41;4932880;29;20510;-77
2023/09/23 05:55:04;;;;;;;7.38;5.00;;;;;;;38.85;17.65;100880.63;4935493;29;20043;-75
2023/09/23 05:57:31;;;;;;;7.60;4.90;;;;;;;38.07;18.13;100854.84;4946106;28;20043;-78
2023/09/23 05:59:57;;;;;;;9.85;5.07;;;;;;;38.29;18.02;100858.72;4940641;29;20051;-84
2023/09/23 06:02:24;;;;;;;10.20;5.20;;;;;;;39.11;17.99;100867.81;4937600;29;20562;-74
2023/09/23 06:04:50;;;;;;;6.90;5.00;;;;;;;39.25;17.36;100863.50;4931140;29;20076;-74
2023/09/23 06:07:17;;;;;;;6.57;4.80;;;;;;;38.92;17.25;100812.81;4936522;29;20062;-73
2023/09/23 06:09:44;;;;;;;7.18;4.72;;;;;;;39.55;17.06;100880.03;4915387;29;20091;-77
2023/09/23 06:12:10;;;;;;;8.52;4.90;;;;;;;40.30;16.16;100875.81;4933055;29;20387;-78
2023/09/23 06:14:36;;;;;;;7.03;4.68;;;;;;;40.69;15.83;100853.97;4933634;29;20522;-78
2023/09/23 06:17:02;;;;;;;7.55;4.95;;;;;;;40.90;15.44;100883.25;4948917;28;20138;-77
2023/09/23 06:19:28;;;;;;;7.90;4.75;;;;;;;40.85;15.44;100863.88;4946166;28;20510;-78
2023/09/23 06:21:54;;;;;;;5.60;4.80;;;;;;;41.58;14.92;100880.38;4932904;29;20044;-78
2023/09/23 06:24:21;;;;;;;6.63;4.82;;;;;;;41.37;15.03;100829.28;4934273;29;20048;-75
2023/09/23 06:26:47;;;;;;;7.40;5.05;;;;;;;42.44;14.97;100881.44;4936195;29;20103;-79
2023/09/23 06:29:16;;;;;;;9.88;5.28;;;;;;;42.76;14.33;100879.13;4944287;28;20048;-78
2023/09/23 06:31:42;;;;;;;8.70;5.88;;;;;;;43.05;14.38;100877.19;4949177;28;20032;-76
2023/09/23 06:34:08;;;;;;;7.55;4.90;;;;;;;43.04;14.00;100853.63;4947314;28;20048;-79
2023/09/23 06:36:34;;;;;;;7.40;4.55;;;;;;;43.79;13.76;100864.66;4943028;28;20040;-76
2023/09/23 06:39:01;;;;;;;8.68;4.75;;;;;;;44.45;13.26;100850.34;4936698;28;20047;-75
2023/09/23 06:41:27;;;;;;;7.10;5.40;;;;;;;44.42;12.81;100881.75;4931453;29;20599;-74
2023/09/23 06:43:53;;;;;;;7.65;5.15;;;;;;;44.47;12.69;100870.19;4946333;28;20059;-80
2023/09/23 06:46:19;;;;;;;7.32;5.03;;;;;;;44.20;13.00;100870.19;4932245;29;20043;-79
2023/09/23 06:48:45;;;;;;;8.85;4.53;;;;;;;44.93;12.63;100873.88;4949657;28;20066;-75
2023/09/23 06:51:11;;;;;;;10.25;4.88;;;;;;;44.49;11.86;100844.22;4931791;29;20049;-78
2023/09/23 06:53:37;;;;;;;11.23;5.68;;;;;;;44.14;12.54;100871.84;4944773;28;20111;-77
2023/09/23 06:56:03;;;;;;;9.13;5.35;;;;;;;44.11;12.17;100874.16;4933627;29;20050;-76
2023/09/23 06:58:29;;;;;;;5.95;5.00;;;;;;;44.90;11.68;100871.56;4937546;29;20035;-77
2023/09/23 07:00:55;;;;;;;6.80;4.70;;;;;;;45.12;11.97;100874.88;4916896;29;20406;-77
2023/09/23 07:03:21;;;;;;;9.02;4.85;;;;;;;45.10;11.74;100852.28;4946933;28;20130;-82
2023/09/23 07:05:47;;;;;;;12.00;5.05;;;;;;;45.34;11.42;100874.59;4939486;28;20502;-79
2023/09/23 07:08:13;;;;;;;9.88;5.10;;;;;;;45.23;11.28;100865.13;4931957;29;20051;-83
2023/09/23 07:10:40;;;;;;;6.53;4.82;;;;;;;45.22;11.39;100858.75;4935769;29;20372;-75
2023/09/23 07:13:06;;;;;;;6.78;5.28;;;;;;;44.95;11.33;100845.16;4944537;28;20053;-74
2023/09/23 07:15:40;;;;;;;7.43;5.00;;;;;;;45.56;11.41;100862.22;4910217;29;20051;-76
2023/09/23 07:18:07;;;;;;;9.75;5.35;;;;;;;45.80;10.98;100858.91;4947128;28;20102;-74
2023/09/23 07:20:34;;;;;;;7.20;5.15;;;;;;;45.36;11.47;100867.81;4932939;29;20130;-77
2023/09/23 07:23:02;;;;;;;6.70;4.45;;;;;;;44.06;11.51;100812.59;4916804;29;20040;-74
2023/09/23 07:25:28;;;;;;;6.53;4.88;;;;;;;44.40;11.59;100870.13;4936452;29;20043;-75
2023/09/23 07:27:54;;;;;;;7.85;4.72;;;;;;;44.51;11.89;100838.50;4934511;29;20043;-74
2023/09/23 07:30:20;;;;;;;7.13;4.70;;;;;;;45.79;11.15;100863.56;4935477;29;20048;-76
2023/09/23 07:32:46;;;;;;;8.65;4.88;;;;;;;46.08;11.03;100852.97;4930816;29;20136;-75
2023/09/23 07:35:12;;;;;;;8.15;4.47;;;;;;;46.49;11.15;100869.13;4945262;28;20506;-75
2023/09/23 07:37:40;;;;;;;6.85;4.80;;;;;;;46.34;10.95;100801.56;4931786;29;20044;-73
2023/09/23 07:40:06;;;;;;;9.48;4.75;;;;;;;47.31;10.62;100860.59;4929902;29;20050;-75
2023/09/23 07:42:32;;;;;;;8.32;4.55;;;;;;;46.96;10.25;100857.63;4929220;29;20482;-72
2023/09/23 07:45:01;;;;;;;8.93;4.80;;;;;;;47.16;9.85;100873.88;4928147;29;20036;-75
2023/09/23 07:47:31;;;;;;;6.70;4.75;;;;;;;46.57;10.01;100877.91;4930219;29;20048;-75
2023/09/23 07:49:58;;;;;;;6.43;4.47;;;;;;;46.12;10.55;100858.91;4936102;28;20043;-79
2023/09/23 07:52:25;;;;;;;5.45;4.43;;;;;;;46.45;10.95;100857.75;4915059;29;20404;-77
2023/09/23 07:54:51;;;;;;;7.18;4.45;;;;;;;47.72;9.80;100860.00;4945061;28;20040;-78
2023/09/23 07:57:17;;;;;;;7.40;4.63;;;;;;;46.61;9.90;100853.56;4930271;29;20146;-77
2023/09/23 07:59:43;;;;;;;11.75;4.75;;;;;;;46.26;10.46;100854.09;4932599;29;20146;-76
2023/09/23 08:02:09;;;;;;;7.28;4.20;;;;;;;45.78;10.47;100864.63;4937699;29;20182;-76
2023/09/23 08:04:35;;;;;;;5.85;4.70;;;;;;;44.38;11.10;100844.81;4930339;29;20050;-74
2023/09/23 08:07:01;;;;;;;7.03;4.82;;;;;;;43.91;11.70;100862.13;4943664;28;20048;-75
2023/09/23 08:09:27;;;;;;;6.47;4.28;;;;;;;44.11;11.49;100828.44;4945957;28;20040;-75
2023/09/23 08:11:53;;;;;;;7.28;4.45;;;;;;;45.09;10.71;100787.47;4943241;28;20103;-76
2023/09/23 08:14:19;;;;;;;7.18;4.30;;;;;;;44.95;10.94;100875.34;4927823;29;20423;-76
2023/09/23 08:16:46;;;;;;;5.60;4.38;;;;;;;44.52;11.07;100862.13;4942271;28;20058;-74
2023/09/23 08:19:11;;;;;;;8.25;4.45;;;;;;;44.69;11.13;100827.69;4945605;28;20134;-73
2023/09/23 08:21:37;;;;;;;7.35;4.13;;;;;;;45.51;10.57;100851.03;4927447;29;20059;-74
2023/09/23 08:24:03;;;;;;;4.80;4.40;;;;;;;45.61;10.69;100830.47;4928033;29;20138;-75
2023/09/23 08:26:30;;;;;;;5.95;4.63;;;;;;;44.84;10.88;100837.59;4945207;28;20465;-72
2023/09/23 08:28:56;;;;;;;9.00;5.75;;;;;;;44.84;10.12;100829.34;4945268;28;20071;-74
2023/09/23 08:31:22;;;;;;;5.18;4.60;;;;;;;44.34;11.31;100841.69;4943128;28;20052;-74
2023/09/23 08:33:48;;;;;;;8.10;4.88;;;;;;;45.30;11.00;100838.47;4934333;29;20051;-71
2023/09/23 08:36:14;;;;;;;6.55;4.00;;;;;;;46.56;10.37;100836.91;4942217;28;20055;-72
2023/09/23 08:38:41;;;;;;;6.57;3.90;;;;;;;47.29;10.08;100842.59;4940500;28;20050;-72
2023/09/23 08:41:07;;;;;;;4.32;3.90;;;;;;;46.83;10.18;100820.09;4925603;29;20035;-75
2023/09/23 08:43:37;;;;;;;8.10;4.40;;;;;;;47.18;9.40;100816.66;4929339;29;20391;-74
2023/09/23 08:46:09;;;;;;;5.60;4.07;;;;;;;48.01;9.06;100824.34;4944062;28;20098;-75
2023/09/23 08:48:36;;;;;;;6.90;4.68;;;;;;;48.61;8.58;100819.66;4945029;28;20075;-78
2023/09/23 08:51:03;;;;;;;7.32;4.32;;;;;;;46.55;9.01;100824.22;4944911;28;20185;-78
2023/09/23 08:53:33;;;;;;;9.48;4.07;;;;;;;45.83;9.48;100812.56;4949451;28;20091;-76
2023/09/23 08:56:00;;;;;;;6.47;3.85;;;;;;;46.51;9.47;100826.59;4927656;29;20047;-77
2023/09/23 08:58:26;;;;;;;7.45;4.13;;;;;;;47.50;9.28;100816.44;4932631;29;20039;-75
2023/09/23 09:00:54;;;;;;;6.43;4.13;;;;;;;48.28;9.32;100824.72;4932282;29;20040;-76
2023/09/23 09:03:20;;;;;;;7.93;4.57;;;;;;;47.48;9.22;100826.84;4945475;28;20067;-75
2023/09/23 09:05:46;;;;;;;9.18;4.70;;;;;;;46.74;9.70;100833.31;4937724;29;20051;-75
2023/09/23 09:08:14;;;;;;;6.50;4.47;;;;;;;46.19;9.94;100826.66;4933455;29;20191;-75
2023/09/23 09:10:41;;;;;;;6.70;4.35;;;;;;;46.22;10.05;100830.88;4932963;29;20088;-76
2023/09/23 09:13:07;;;;;;;8.95;4.13;;;;;;;44.78;10.12;100816.50;4948660;28;20097;-75
2023/09/23 09:15:35;;;;;;;5.45;3.85;;;;;;;44.58;10.21;100794.63;4934517;29;20055;-76
2023/09/23 09:18:02;;;;;;;7.38;4.25;;;;;;;44.55;10.36;100804.13;4930346;29;20046;-76
2023/09/23 09:20:29;;;;;;;8.35;3.95;;;;;;;44.97;10.54;100803.78;4956252;28;20058;-75
2023/09/23 09:22:54;;;;;;;9.57;4.10;;;;;;;45.45;10.01;100818.97;4938122;29;20036;-75
2023/09/23 09:25:21;;;;;;;6.75;3.85;;;;;;;44.28;10.22;100808.81;4932680;29;20207;-77
2023/09/23 09:27:48;;;;;;;6.63;4.18;;;;;;;43.31;10.10;100812.69;4937643;29;20094;-83
2023/09/23 09:30:14;;;;;;;4.93;3.53;;;;;;;43.11;11.12;100810.72;4920187;29;20521;-76
2023/09/23 09:32:42;;;;;;;7.15;3.95;;;;;;;43.21;10.95;100818.53;4937976;29;20047;-77
2023/09/23 09:35:26;;;;;;;7.72;3.45;;;;;;;43.56;10.75;100793.78;4933451;29;20047;-76
2023/09/23 09:37:58;;;;;;;5.25;3.35;;;;;;;43.87;10.38;100816.16;4933326;29;20133;-79
2023/09/23 09:40:25;;;;;;;4.38;3.33;;;;;;;43.44;10.45;100811.88;4945116;28;20035;-76
2023/09/23 09:42:53;;;;;;;5.57;3.40;;;;;;;43.23;10.53;100813.72;4927968;29;20059;-77
2023/09/23 09:45:21;;;;;;;6.10;3.45;;;;;;;43.76;10.35;100814.91;4911571;29;20066;-77
2023/09/23 09:47:51;;;;;;;4.80;3.50;;;;;;;42.52;10.72;100809.34;4943255;28;20514;-75
2023/09/23 09:50:17;;;;;;;;;;;;;;;42.45;10.68;100822.97;4929237;29;20054;-74
2023/09/23 09:52:43;;;;;;;9.25;4.30;;;;;;;42.58;10.68;100803.91;4947474;28;19923;-78
2023/09/23 09:55:20;;;;;;;7.90;4.00;;;;;;;42.67;10.78;100804.59;4945337;28;20079;-76
2023/09/23 09:57:48;;;;;;;7.22;4.07;;;;;;;42.37;10.52;100832.19;4939260;29;20094;-78
2023/09/23 10:00:28;;;;;;;9.55;3.83;;;;;;;41.95;10.86;100810.19;4950525;28;20066;-77
2023/09/23 10:03:05;;;;;;;7.25;3.55;;;;;;;41.78;11.33;100814.19;4931300;29;20496;-83
2023/09/23 10:05:40;;;;;;;5.43;3.58;;;;;;;41.40;10.90;100818.81;4948993;28;20129;-80
2023/09/23 10:08:12;;;;;;;6.22;3.60;;;;;;;38.97;12.17;100815.81;4935430;29;20047;-82
2023/09/23 10:10:47;;;;;;;7.45;3.50;;;;;;;36.60;13.58;100825.13;4936001;29;20410;-80
2023/09/23 10:13:18;;;;;;;6.05;3.40;;;;;;;34.62;14.89;100815.69;4950402;28;20050;-85
2023/09/23 10:15:45;;;;;;;6.00;3.60;;;;;;;33.35;16.01;100838.88;4932286;29;20059;-78
2023/09/23 10:18:16;;;;;;;5.75;3.60;;;;;;;32.35;16.71;100849.25;4932255;29;20070;-77
2023/09/23 10:20:56;;;;;;;6.03;3.95;;;;;;;31.68;18.18;100838.59;4933741;29;20067;-81
2023/09/23 10:23:22;;;;;;;4.80;3.58;;;;;;;30.63;18.86;100793.19;4934291;29;20039;-77
2023/09/23 10:25:50;;;;;;;7.35;3.60;;;;;;;30.36;19.27;100813.94;4933809;29;20149;-79
2023/09/23 10:28:25;;;;;;;6.18;3.40;;;;;;;30.25;19.93;100858.69;4927211;29;20047;-81
2023/09/23 10:30:59;;;;;;;5.32;3.78;;;;;;;29.69;20.10;100811.81;4923507;29;20043;-75
2023/09/23 10:33:27;;;;;;;5.35;3.60;;;;;;;29.44;20.41;100829.69;4941383;28;20047;-74
2023/09/23 10:35:54;;;;;;;7.28;3.53;;;;;;;29.19;20.69;100814.50;4930137;29;20155;-76
2023/09/23 10:38:34;;;;;;;6.28;3.85;;;;;;;29.00;21.14;100813.16;4943943;28;20044;-74
2023/09/23 10:41:02;;;;;;;3.85;3.45;;;;;;;28.82;21.28;100808.09;4943600;28;20054;-79
2023/09/23 10:43:29;;;;;;;7.78;3.85;;;;;;;28.53;21.41;100792.25;4930109;29;20055;-80
2023/09/23 10:45:59;;;;;;;6.82;3.67;;;;;;;28.20;21.76;100814.13;4932490;29;20038;-77
2023/09/23 10:48:26;;;;;;;7.33;3.63;;;;;;;27.89;22.25;100813.47;4931320;29;20039;-77
2023/09/23 10:50:52;;;;;;;6.45;3.45;;;;;;;27.72;22.28;100836.81;4931166;29;20050;-78
2023/09/23 10:53:21;;;;;;;7.30;3.03;;;;;;;27.36;22.72;100790.97;4927980;29;20116;-75
2023/09/23 10:55:49;;;;;;;5.40;3.30;;;;;;;27.17;22.23;100764.56;4914154;29;20048;-77
2023/09/23 10:58:16;;;;;;;9.40;3.50;;;;;;;27.34;23.00;100824.09;4931261;29;20043;-76
2023/09/23 11:00:43;;;;;;;5.07;3.28;;;;;;;27.03;23.00;100816.16;4931913;29;20048;-78
2023/09/23 11:03:16;;;;;;;7.68;3.28;;;;;;;26.90;23.53;100836.56;4945206;28;20036;-77
2023/09/23 11:05:44;;;;;;;4.70;3.50;;;;;;;26.63;23.42;100839.09;4929751;29;20127;-77
2023/09/23 11:08:12;;;;;;;7.60;3.80;;;;;;;26.40;23.78;100820.81;4938282;28;20047;-76
2023/09/23 11:10:45;;;;;;;6.20;3.80;;;;;;;26.24;24.22;100828.91;4944554;28;20043;-76
2023/09/23 11:13:13;;;;;;;5.93;3.42;;;;;;;26.22;24.74;100819.25;4945725;28;20039;-82
2023/09/23 11:15:43;;;;;;;8.05;4.18;;;;;;;25.98;24.66;100785.03;4934142;29;20143;-84
2023/09/23 11:18:10;;;;;;;4.40;3.50;;;;;;;26.14;24.84;100820.56;4926538;29;20140;-80
2023/09/23 11:20:40;;;;;;;6.05;3.90;;;;;;;26.12;25.23;100809.13;4941115;29;20134;-87
2023/09/23 11:23:10;;;;;;;6.88;3.92;;;;;;;26.11;25.00;100796.72;4938388;29;20032;-83
2023/09/23 11:25:46;;;;;;;6.53;4.10;;;;;;;26.15;25.37;100803.59;4914149;29;20051;-81
2023/09/23 11:28:18;;;;;;;4.47;3.50;;;;;;;26.19;25.55;100806.09;4936141;29;20194;-83
2023/09/23 11:30:44;;;;;;;;;;;;;;;25.91;25.46;100778.38;4934958;29;20486;-86